createdAt,value
2023-03-02T00:00:50.177Z,88.30
2023-03-02T00:02:04.309Z,91.50
2023-03-02T00:03:07.508Z,87.00
2023-03-02T00:04:16.305Z,90.80
2023-03-02T00:05:19.281Z,87.70
2023-03-02T00:06:22.173Z,90.50
2023-03-02T00:07:32.534Z,97.10
2023-03-02T00:08:36.703Z,96.80
2023-03-02T00:09:40.105Z,96.90
2023-03-02T00:10:43.055Z,91.60
2023-03-02T00:11:46.127Z,96.50
2023-03-02T00:12:49.120Z,95.10
2023-03-02T00:13:51.976Z,93.90
2023-03-02T00:14:55.187Z,90.30
2023-03-02T00:15:58.308Z,97.80
2023-03-02T00:17:02.891Z,99.00
2023-03-02T00:18:05.995Z,95.60
2023-03-02T00:19:08.914Z,92.10
2023-03-02T00:20:12.232Z,95.00
2023-03-02T00:21:15.138Z,92.30
2023-03-02T00:22:19.211Z,94.80
2023-03-02T00:23:22.440Z,93.90
2023-03-02T00:24:25.377Z,93.60
2023-03-02T00:25:28.861Z,96.10
2023-03-02T00:26:36.196Z,97.70
2023-03-02T00:27:39.409Z,94.50
2023-03-02T00:28:42.626Z,88.50
2023-03-02T00:29:45.754Z,92.00
2023-03-02T00:30:48.624Z,87.70
2023-03-02T00:31:51.691Z,95.60
2023-03-02T00:32:54.807Z,97.50
2023-03-02T00:33:57.767Z,99.40
2023-03-02T00:35:00.789Z,96.20
2023-03-02T00:36:04.210Z,94.30
2023-03-02T00:37:07.084Z,96.60
2023-03-02T00:38:10.113Z,97.90
2023-03-02T00:39:12.958Z,99.10
2023-03-02T00:40:16.220Z,102.70
2023-03-02T00:41:21.693Z,100.10
2023-03-02T00:42:24.602Z,100.70
2023-03-02T00:43:28.232Z,100.00
2023-03-02T00:44:31.231Z,108.20
2023-03-02T00:45:34.084Z,96.20
2023-03-02T00:46:37.472Z,94.00
2023-03-02T00:47:41.536Z,94.70
2023-03-02T00:48:45.759Z,94.30
2023-03-02T00:49:49.663Z,99.20
2023-03-02T00:50:52.554Z,94.10
2023-03-02T00:51:55.471Z,91.60
2023-03-02T00:52:58.472Z,98.00
2023-03-02T00:54:02.956Z,98.40
2023-03-02T00:55:06.488Z,100.00
2023-03-02T00:56:10.363Z,97.10
2023-03-02T00:57:13.654Z,91.80
2023-03-02T00:58:16.678Z,98.10
2023-03-02T00:59:28.490Z,92.50
2023-03-02T01:00:58.803Z,85.80
2023-03-02T01:02:02.498Z,89.10
2023-03-02T01:03:06.549Z,90.20
2023-03-02T01:04:09.490Z,83.30
2023-03-02T01:05:12.841Z,80.80
2023-03-02T01:06:19.099Z,76.90
2023-03-02T01:07:25.004Z,77.80
2023-03-02T01:08:28.122Z,84.80
2023-03-02T01:09:31.985Z,82.00
2023-03-02T01:10:34.938Z,82.30
2023-03-02T01:11:38.333Z,84.40
2023-03-02T01:12:41.207Z,87.30
2023-03-02T01:13:44.828Z,83.10
2023-03-02T01:14:49.202Z,84.00
2023-03-02T01:16:03.636Z,86.10
2023-03-02T01:17:07.546Z,86.20
2023-03-02T01:18:12.227Z,86.90
2023-03-02T01:19:16.696Z,87.40
2023-03-02T01:20:19.851Z,85.80
2023-03-02T01:21:22.716Z,90.10
2023-03-02T01:22:26.416Z,89.60
2023-03-02T01:23:29.298Z,91.60
2023-03-02T01:24:32.465Z,90.30
2023-03-02T01:25:35.310Z,88.00
2023-03-02T01:26:38.566Z,97.30
2023-03-02T01:27:41.423Z,91.30
2023-03-02T01:28:44.270Z,87.70
2023-03-02T01:29:47.467Z,91.30
2023-03-02T01:30:50.365Z,89.20
2023-03-02T01:31:53.314Z,87.90
2023-03-02T01:32:56.368Z,82.50
2023-03-02T01:33:59.223Z,83.80
2023-03-02T01:35:02.073Z,87.50
2023-03-02T01:36:05.336Z,87.00
2023-03-02T01:37:08.212Z,85.50
2023-03-02T01:38:11.455Z,85.40
2023-03-02T01:39:17.856Z,86.40
2023-03-02T01:40:21.062Z,87.00
2023-03-02T01:41:24.154Z,89.30
2023-03-02T01:42:27.113Z,84.50
2023-03-02T01:43:30.067Z,85.50
2023-03-02T01:44:48.092Z,90.90
2023-03-02T01:45:53.441Z,85.30
2023-03-02T01:47:27.086Z,83.00
2023-03-02T01:48:53.532Z,81.20
2023-03-02T01:50:12.111Z,88.60
2023-03-02T01:51:20.449Z,85.80
2023-03-02T01:52:24.203Z,84.40
2023-03-02T01:53:31.424Z,88.80
2023-03-02T01:54:35.488Z,82.10
2023-03-02T01:55:39.757Z,82.50
2023-03-02T01:56:45.569Z,83.00
2023-03-02T01:57:52.068Z,82.60
2023-03-02T01:59:03.503Z,87.50
2023-03-02T02:00:12.101Z,86.30
2023-03-02T02:01:18.033Z,87.60
2023-03-02T02:02:21.126Z,86.90
2023-03-02T02:03:28.308Z,82.70
2023-03-02T02:04:34.598Z,84.10
2023-03-02T02:05:41.229Z,91.20
2023-03-02T02:06:52.894Z,90.70
2023-03-02T02:07:56.055Z,83.20
2023-03-02T02:09:01.341Z,82.70
2023-03-02T02:10:05.383Z,80.90
2023-03-02T02:11:08.445Z,84.00
2023-03-02T02:12:16.948Z,87.60
2023-03-02T02:13:19.908Z,86.30
2023-03-02T02:14:23.957Z,77.80
2023-03-02T02:15:26.905Z,88.80
2023-03-02T02:16:33.494Z,88.80
2023-03-02T02:17:36.720Z,92.70
2023-03-02T02:18:41.108Z,88.10
2023-03-02T02:19:50.110Z,93.70
2023-03-02T02:20:54.972Z,98.10
2023-03-02T02:21:57.914Z,106.60
2023-03-02T02:23:35.463Z,102.20
2023-03-02T02:24:58.696Z,74.80
2023-03-02T02:26:07.790Z,117.80
2023-03-02T02:28:20.832Z,102.50
2023-03-02T02:29:45.654Z,101.40
2023-03-02T02:31:03.758Z,111.30
2023-03-02T02:32:20.444Z,111.70
2023-03-02T02:33:25.556Z,106.60
2023-03-02T02:34:45.048Z,111.40
2023-03-02T02:35:52.907Z,120.00
2023-03-02T02:37:01.340Z,111.40
2023-03-02T02:38:07.973Z,114.70
2023-03-02T02:39:18.671Z,119.10
2023-03-02T02:40:44.400Z,126.70
2023-03-02T02:41:51.713Z,126.10
2023-03-02T02:42:54.850Z,123.00
2023-03-02T02:43:58.144Z,126.70
2023-03-02T02:45:06.584Z,126.50
2023-03-02T02:46:11.825Z,121.90
2023-03-02T02:47:20.484Z,124.90
2023-03-02T02:48:25.456Z,128.60
2023-03-02T02:49:33.592Z,120.40
2023-03-02T02:50:38.193Z,112.90
2023-03-02T02:51:41.796Z,120.60
2023-03-02T02:52:47.516Z,128.30
2023-03-02T02:54:00.254Z,118.40
2023-03-02T02:55:06.640Z,113.60
2023-03-02T02:56:11.941Z,104.40
2023-03-02T02:57:18.481Z,108.80
2023-03-02T02:58:45.424Z,104.00
2023-03-02T02:59:51.284Z,97.70
2023-03-02T03:00:54.938Z,102.90
2023-03-02T03:02:00.307Z,97.20
2023-03-02T03:03:29.463Z,110.30
2023-03-02T03:04:33.648Z,113.20
2023-03-02T03:05:37.616Z,102.80
2023-03-02T03:07:09.956Z,114.70
2023-03-02T03:08:59.696Z,109.90
2023-03-02T03:10:23.475Z,104.30
2023-03-02T03:11:29.962Z,100.50
2023-03-02T03:12:34.332Z,101.90
2023-03-02T03:13:41.226Z,102.00
2023-03-02T03:14:44.729Z,104.80
2023-03-02T03:15:48.385Z,104.10
2023-03-02T03:16:51.804Z,107.30
2023-03-02T03:17:59.051Z,103.50
2023-03-02T03:19:12.006Z,100.60
2023-03-02T03:20:16.834Z,106.10
2023-03-02T03:21:19.981Z,100.60
2023-03-02T03:22:22.851Z,116.70
2023-03-02T03:23:26.691Z,112.00
2023-03-02T03:24:31.571Z,105.50
2023-03-02T03:25:35.152Z,101.50
2023-03-02T03:26:38.436Z,109.90
2023-03-02T03:27:43.031Z,106.90
2023-03-02T03:28:46.286Z,107.80
2023-03-02T03:29:49.367Z,103.80
2023-03-02T03:30:53.863Z,109.00
2023-03-02T03:31:58.149Z,101.00
2023-03-02T03:33:01.616Z,104.10
2023-03-02T03:34:05.634Z,98.60
2023-03-02T03:35:12.465Z,96.00
2023-03-02T03:36:15.724Z,97.10
2023-03-02T03:37:20.320Z,96.40
2023-03-02T03:38:23.296Z,100.20
2023-03-02T03:39:27.364Z,108.70
2023-03-02T03:40:34.338Z,107.20
2023-03-02T03:41:37.860Z,110.00
2023-03-02T03:42:40.855Z,108.80
2023-03-02T03:43:43.861Z,106.80
2023-03-02T03:44:47.607Z,114.80
2023-03-02T03:45:52.139Z,103.50
2023-03-02T03:46:56.063Z,104.90
2023-03-02T03:47:59.239Z,98.00
2023-03-02T03:49:02.760Z,105.50
2023-03-02T03:50:06.197Z,102.30
2023-03-02T03:51:10.235Z,98.60
2023-03-02T03:52:13.192Z,101.30
2023-03-02T03:53:16.094Z,96.00
2023-03-02T03:54:19.214Z,100.50
2023-03-02T03:55:22.142Z,97.40
2023-03-02T03:56:26.982Z,93.20
2023-03-02T03:57:29.927Z,96.80
2023-03-02T03:58:33.342Z,102.80
2023-03-02T03:59:36.190Z,104.70
2023-03-02T04:00:39.485Z,101.40
2023-03-02T04:01:56.506Z,94.50
2023-03-02T04:03:01.451Z,90.10
2023-03-02T04:04:08.144Z,93.00
2023-03-02T04:05:11.137Z,94.30
2023-03-02T04:06:19.009Z,92.60
2023-03-02T04:07:22.501Z,101.10
2023-03-02T04:08:25.449Z,93.80
2023-03-02T04:09:29.380Z,96.20
2023-03-02T04:10:32.577Z,93.40
2023-03-02T04:11:38.729Z,96.90
2023-03-02T04:12:42.456Z,90.90
2023-03-02T04:13:46.313Z,92.40
2023-03-02T04:14:49.180Z,88.30
2023-03-02T04:15:52.185Z,94.10
2023-03-02T04:16:55.387Z,91.40
2023-03-02T04:17:59.785Z,89.60
2023-03-02T04:19:04.124Z,84.80
2023-03-02T04:20:09.075Z,94.60
2023-03-02T04:21:14.024Z,92.10
2023-03-02T04:22:17.418Z,88.20
2023-03-02T04:23:20.630Z,86.50
2023-03-02T04:24:24.700Z,88.60
2023-03-02T04:25:31.097Z,84.10
2023-03-02T04:26:41.028Z,87.80
2023-03-02T04:27:44.308Z,89.90
2023-03-02T04:28:50.910Z,86.70
2023-03-02T04:29:54.624Z,89.20
2023-03-02T04:30:57.568Z,83.10
2023-03-02T04:32:00.860Z,78.50
2023-03-02T04:33:04.490Z,81.60
2023-03-02T04:34:09.085Z,83.80
2023-03-02T04:35:14.922Z,83.80
2023-03-02T04:36:19.625Z,78.00
2023-03-02T04:37:24.137Z,82.70
2023-03-02T04:38:29.779Z,81.40
2023-03-02T04:39:33.028Z,85.00
2023-03-02T04:40:36.117Z,82.00
2023-03-02T04:41:38.936Z,76.80
2023-03-02T04:42:41.936Z,81.50
2023-03-02T04:43:45.332Z,74.80
2023-03-02T04:44:49.060Z,79.50
2023-03-02T04:45:53.405Z,80.30
2023-03-02T04:46:56.373Z,85.60
2023-03-02T04:47:59.578Z,83.80
2023-03-02T04:49:02.622Z,82.10
2023-03-02T04:50:06.168Z,80.70
2023-03-02T04:51:19.506Z,87.70
2023-03-02T04:52:22.887Z,87.30
2023-03-02T04:53:25.799Z,87.70
2023-03-02T04:54:28.890Z,101.70
2023-03-02T04:55:31.758Z,96.90
2023-03-02T04:56:34.997Z,97.70
2023-03-02T04:57:38.029Z,107.00
2023-03-02T04:58:40.901Z,98.30
2023-03-02T04:59:43.884Z,107.10
2023-03-02T05:00:46.852Z,108.40
2023-03-02T05:01:50.573Z,102.30
2023-03-02T05:02:53.735Z,100.70
2023-03-02T05:03:56.652Z,104.10
2023-03-02T05:04:59.587Z,103.20
2023-03-02T05:06:05.369Z,105.60
2023-03-02T05:07:08.651Z,99.30
2023-03-02T05:08:11.578Z,97.10
2023-03-02T05:09:15.261Z,99.80
2023-03-02T05:10:20.037Z,92.90
2023-03-02T05:11:22.947Z,97.90
2023-03-02T05:12:25.870Z,89.20
2023-03-02T05:13:29.303Z,102.40
2023-03-02T05:14:32.970Z,89.50
2023-03-02T05:15:39.053Z,96.20
2023-03-02T05:16:42.448Z,86.50
2023-03-02T05:17:45.319Z,80.00
2023-03-02T05:18:49.039Z,85.40
2023-03-02T05:19:51.910Z,88.30
2023-03-02T05:20:55.482Z,82.90
2023-03-02T05:21:58.543Z,84.00
2023-03-02T05:23:04.073Z,85.00
2023-03-02T05:24:08.099Z,84.60
2023-03-02T05:25:11.820Z,85.80
2023-03-02T05:26:14.814Z,83.30
2023-03-02T05:27:17.753Z,79.30
2023-03-02T05:28:21.840Z,81.20
2023-03-02T05:29:25.099Z,76.30
2023-03-02T05:30:28.934Z,86.60
2023-03-02T05:31:38.009Z,83.50
2023-03-02T05:32:41.174Z,75.10
2023-03-02T05:33:44.114Z,81.90
2023-03-02T05:34:47.086Z,80.60
2023-03-02T05:35:50.008Z,83.20
2023-03-02T05:36:52.858Z,79.00
2023-03-02T05:37:55.810Z,88.30
2023-03-02T05:38:58.975Z,80.40
2023-03-02T05:40:02.361Z,75.50
2023-03-02T05:41:05.902Z,79.70
2023-03-02T05:42:10.350Z,84.90
2023-03-02T05:43:18.997Z,82.00
2023-03-02T05:44:21.890Z,95.30
2023-03-02T05:45:31.294Z,82.80
2023-03-02T05:46:34.612Z,80.50
2023-03-02T05:47:37.694Z,86.10
2023-03-02T05:48:42.346Z,80.70
2023-03-02T05:49:45.168Z,91.90
2023-03-02T05:50:48.076Z,92.20
2023-03-02T05:51:51.300Z,95.20
2023-03-02T05:52:54.231Z,83.80
2023-03-02T05:53:57.070Z,92.70
2023-03-02T05:54:59.940Z,120.20
2023-03-02T05:56:03.596Z,108.80
2023-03-02T05:57:07.428Z,95.40
2023-03-02T05:58:14.675Z,101.90
2023-03-02T05:59:17.525Z,100.70
2023-03-02T06:00:20.850Z,100.90
2023-03-02T06:01:23.747Z,102.40
2023-03-02T06:02:26.580Z,111.20
2023-03-02T06:03:29.708Z,103.40
2023-03-02T06:04:32.710Z,95.70
2023-03-02T06:05:35.815Z,93.60
2023-03-02T06:06:39.180Z,99.10
2023-03-02T06:07:43.167Z,105.30
2023-03-02T06:08:46.344Z,109.60
2023-03-02T06:09:51.056Z,109.80
2023-03-02T06:10:57.738Z,109.10
2023-03-02T06:12:00.793Z,112.30
2023-03-02T06:13:03.748Z,107.30
2023-03-02T06:14:07.538Z,105.20
2023-03-02T06:15:10.679Z,99.60
2023-03-02T06:16:13.699Z,110.00
2023-03-02T06:17:16.740Z,101.40
2023-03-02T06:18:19.617Z,102.80
2023-03-02T06:19:22.471Z,101.60
2023-03-02T06:20:25.931Z,104.70
2023-03-02T06:21:28.829Z,95.70
2023-03-02T06:22:31.771Z,106.90
2023-03-02T06:23:34.633Z,99.20
2023-03-02T06:24:37.598Z,96.30
2023-03-02T06:25:43.754Z,97.00
2023-03-02T06:26:46.637Z,99.00
2023-03-02T06:27:53.949Z,97.30
2023-03-02T06:28:56.845Z,97.20
2023-03-02T06:29:59.788Z,90.50
2023-03-02T06:31:02.652Z,93.90
2023-03-02T06:32:06.389Z,100.00
2023-03-02T06:33:09.976Z,101.20
2023-03-02T06:34:12.876Z,93.50
2023-03-02T06:35:16.015Z,95.20
2023-03-02T06:36:19.304Z,94.80
2023-03-02T06:37:22.236Z,97.80
2023-03-02T06:38:25.128Z,92.70
2023-03-02T06:39:28.129Z,100.00
2023-03-02T06:40:31.475Z,95.10
2023-03-02T06:41:34.599Z,89.70
2023-03-02T06:42:38.843Z,92.30
2023-03-02T06:43:42.131Z,96.50
2023-03-02T06:44:44.965Z,92.50
2023-03-02T06:45:47.892Z,93.00
2023-03-02T06:46:50.781Z,99.60
2023-03-02T06:47:54.026Z,92.70
2023-03-02T06:48:56.858Z,98.60
2023-03-02T06:50:00.372Z,99.90
2023-03-02T06:51:03.323Z,90.00
2023-03-02T06:52:07.357Z,99.90
2023-03-02T06:53:10.504Z,98.30
2023-03-02T06:54:13.830Z,100.90
2023-03-02T06:55:16.805Z,100.40
2023-03-02T06:56:19.653Z,93.70
2023-03-02T06:57:22.866Z,103.90
2023-03-02T06:58:25.746Z,96.50
2023-03-02T06:59:28.854Z,105.00
2023-03-02T07:00:31.736Z,98.00
2023-03-02T07:01:36.407Z,92.70
2023-03-02T07:02:39.449Z,105.80
2023-03-02T07:03:42.749Z,105.50
2023-03-02T07:04:45.628Z,98.90
2023-03-02T07:05:49.209Z,108.00
2023-03-02T07:06:52.100Z,95.80
2023-03-02T07:07:55.021Z,104.40
2023-03-02T07:08:57.952Z,102.40
2023-03-02T07:10:00.834Z,105.50
2023-03-02T07:11:11.996Z,103.50
2023-03-02T07:12:14.891Z,104.60
2023-03-02T07:13:18.091Z,105.30
2023-03-02T07:14:20.946Z,113.30
2023-03-02T07:15:24.361Z,106.00
2023-03-02T07:16:27.642Z,112.80
2023-03-02T07:17:30.653Z,111.20
2023-03-02T07:18:33.482Z,103.50
2023-03-02T07:19:40.838Z,101.20
2023-03-02T07:20:43.856Z,107.20
2023-03-02T07:21:46.736Z,108.60
2023-03-02T07:22:49.832Z,103.80
2023-03-02T07:23:52.926Z,101.30
2023-03-02T07:24:55.776Z,105.30
2023-03-02T07:26:02.016Z,106.00
2023-03-02T07:27:04.869Z,102.20
2023-03-02T07:28:07.709Z,102.60
2023-03-02T07:29:10.578Z,102.40
2023-03-02T07:30:14.982Z,106.30
2023-03-02T07:31:17.938Z,97.10
2023-03-02T07:32:20.944Z,102.00
2023-03-02T07:33:23.793Z,101.40
2023-03-02T07:34:27.470Z,108.50
2023-03-02T07:35:30.384Z,109.10
2023-03-02T07:36:33.266Z,99.30
2023-03-02T07:37:36.151Z,98.90
2023-03-02T07:38:42.494Z,111.60
2023-03-02T07:39:45.340Z,101.80
2023-03-02T07:40:48.529Z,97.70
2023-03-02T07:41:51.435Z,98.10
2023-03-02T07:42:56.483Z,97.80
2023-03-02T07:43:59.365Z,100.80
2023-03-02T07:45:04.784Z,95.10
2023-03-02T07:46:07.922Z,87.10
2023-03-02T07:47:11.095Z,94.30
2023-03-02T07:48:13.971Z,87.90
2023-03-02T07:49:16.952Z,87.60
2023-03-02T07:50:20.038Z,92.00
2023-03-02T07:51:22.934Z,87.40
2023-03-02T07:52:25.871Z,93.10
2023-03-02T07:53:29.386Z,91.10
2023-03-02T07:54:32.508Z,87.00
2023-03-02T07:55:35.478Z,81.50
2023-03-02T07:56:38.809Z,85.70
2023-03-02T07:57:41.687Z,87.10
2023-03-02T07:58:44.574Z,91.00
2023-03-02T07:59:47.479Z,87.60
2023-03-02T08:00:50.429Z,93.80
2023-03-02T08:01:53.293Z,91.90
2023-03-02T08:02:56.230Z,88.60
2023-03-02T08:03:59.163Z,91.00
2023-03-02T08:05:02.161Z,92.90
2023-03-02T08:06:11.654Z,90.10
2023-03-02T08:07:14.554Z,84.50
2023-03-02T08:08:17.474Z,96.90
2023-03-02T08:09:20.354Z,91.00
2023-03-02T08:10:23.539Z,89.30
2023-03-02T08:11:26.369Z,90.60
2023-03-02T08:12:29.732Z,91.30
2023-03-02T08:13:32.622Z,94.20
2023-03-02T08:14:35.683Z,88.30
2023-03-02T08:15:38.534Z,87.30
2023-03-02T08:16:41.485Z,88.70
2023-03-02T08:17:45.051Z,90.30
2023-03-02T08:18:48.024Z,81.10
2023-03-02T08:19:51.073Z,79.80
2023-03-02T08:20:54.609Z,79.90
2023-03-02T08:21:57.545Z,84.40
2023-03-02T08:23:00.398Z,79.30
2023-03-02T08:24:03.668Z,81.40
2023-03-02T08:25:07.471Z,84.10
2023-03-02T08:26:13.517Z,81.80
2023-03-02T08:27:17.194Z,83.50
2023-03-02T08:28:21.128Z,78.40
2023-03-02T08:29:24.794Z,82.00
2023-03-02T08:30:27.745Z,77.10
2023-03-02T08:31:30.908Z,78.50
2023-03-02T08:32:34.922Z,83.60
2023-03-02T08:33:38.234Z,73.60
2023-03-02T08:34:41.143Z,74.50
2023-03-02T08:35:44.237Z,77.40
2023-03-02T08:36:47.129Z,70.90
2023-03-02T08:37:50.012Z,69.50
2023-03-02T08:38:54.644Z,67.40
2023-03-02T08:39:58.791Z,65.70
2023-03-02T08:41:12.843Z,64.10
2023-03-02T08:42:16.397Z,64.80
2023-03-02T08:43:20.560Z,65.10
2023-03-02T08:44:23.569Z,63.80
2023-03-02T08:45:26.568Z,61.30
2023-03-02T08:46:30.580Z,67.20
2023-03-02T08:47:33.434Z,67.60
2023-03-02T08:48:36.315Z,62.80
2023-03-02T08:49:39.316Z,62.70
2023-03-02T08:50:42.173Z,60.30
2023-03-02T08:51:46.376Z,60.40
2023-03-02T08:52:49.258Z,56.40
2023-03-02T08:53:55.498Z,64.90
2023-03-02T08:54:58.498Z,64.40
2023-03-02T08:56:01.800Z,58.50
2023-03-02T08:57:04.648Z,59.30
2023-03-02T08:58:07.467Z,58.20
2023-03-02T08:59:13.195Z,59.50
2023-03-02T09:00:16.640Z,64.60
2023-03-02T09:01:22.449Z,54.20
2023-03-02T09:02:25.350Z,49.90
2023-03-02T09:03:28.540Z,48.90
2023-03-02T09:04:31.721Z,53.70
2023-03-02T09:05:35.853Z,49.90
2023-03-02T09:06:41.945Z,43.60
2023-03-02T09:07:45.304Z,46.90
2023-03-02T09:08:48.309Z,51.30
2023-03-02T09:09:51.267Z,47.50
2023-03-02T09:10:54.146Z,48.80
2023-03-02T09:11:57.308Z,47.40
2023-03-02T09:13:00.156Z,55.00
2023-03-02T09:14:03.561Z,50.20
2023-03-02T09:15:06.956Z,51.50
2023-03-02T09:16:10.780Z,43.20
2023-03-02T09:17:16.090Z,45.80
2023-03-02T09:18:18.972Z,48.00
2023-03-02T09:19:21.845Z,46.10
2023-03-02T09:20:24.718Z,39.50
2023-03-02T09:21:27.621Z,40.50
2023-03-02T09:22:31.322Z,39.50
2023-03-02T09:23:36.592Z,36.30
2023-03-02T09:24:39.478Z,38.50
2023-03-02T09:25:43.721Z,37.60
2023-03-02T09:26:47.576Z,41.80
2023-03-02T09:27:50.427Z,39.30
2023-03-02T09:28:53.339Z,31.10
2023-03-02T09:29:57.320Z,33.10
2023-03-02T09:31:03.349Z,32.80
2023-03-02T09:32:06.282Z,28.50
2023-03-02T09:33:09.271Z,29.80
2023-03-02T09:34:12.171Z,24.90
2023-03-02T09:35:15.322Z,30.60
2023-03-02T09:36:22.946Z,28.30
2023-03-02T09:37:27.747Z,27.90
2023-03-02T09:38:30.612Z,30.30
2023-03-02T09:39:33.593Z,26.60
2023-03-02T09:40:47.348Z,29.70
2023-03-02T09:42:14.214Z,25.60
2023-03-02T09:43:24.557Z,24.20
2023-03-02T09:44:51.996Z,23.90
2023-03-02T09:46:19.639Z,22.50
2023-03-02T09:48:01.520Z,25.80
2023-03-02T09:49:15.037Z,25.00
2023-03-02T09:50:34.947Z,20.50
2023-03-02T09:51:46.856Z,17.60
2023-03-02T09:53:09.247Z,20.00
2023-03-02T09:54:24.646Z,18.40
2023-03-02T09:55:32.356Z,18.50
2023-03-02T09:56:47.600Z,17.30
2023-03-02T09:57:51.413Z,17.80
2023-03-02T09:59:01.144Z,14.10
2023-03-02T10:01:32.915Z,16.00
2023-03-02T10:02:43.080Z,15.40
2023-03-02T10:04:03.737Z,15.60
2023-03-02T10:05:38.233Z,15.00
2023-03-02T10:06:41.268Z,12.80
2023-03-02T10:07:46.333Z,12.70
2023-03-02T10:08:50.972Z,13.90
2023-03-02T10:09:56.039Z,12.40
2023-03-02T10:11:42.980Z,14.60
2023-03-02T10:13:23.281Z,13.10
2023-03-02T10:14:56.276Z,12.70
2023-03-02T10:15:59.168Z,13.90
2023-03-02T10:17:18.558Z,11.50
2023-03-02T10:18:34.538Z,10.60
2023-03-02T10:19:54.510Z,12.00
2023-03-02T10:21:05.965Z,11.10
2023-03-02T10:22:43.432Z,13.80
2023-03-02T10:24:24.487Z,13.00
2023-03-02T10:25:38.148Z,9.10
2023-03-02T10:26:53.365Z,11.50
2023-03-02T10:28:13.678Z,7.80
2023-03-02T10:29:41.366Z,12.50
2023-03-02T10:30:46.976Z,10.70
2023-03-02T10:31:55.750Z,11.50
2023-03-02T10:33:04.421Z,10.70
2023-03-02T10:34:13.907Z,13.80
2023-03-02T10:35:25.198Z,14.20
2023-03-02T10:36:31.326Z,13.60
2023-03-02T10:37:34.240Z,9.90
2023-03-02T10:38:38.128Z,11.10
2023-03-02T10:39:41.863Z,10.30
2023-03-02T10:40:50.848Z,10.60
2023-03-02T10:42:00.820Z,11.30
2023-03-02T10:43:05.769Z,9.90
2023-03-02T10:44:25.417Z,7.30
2023-03-02T10:46:41.301Z,7.70
2023-03-02T10:47:44.308Z,7.10
2023-03-02T10:48:59.745Z,7.60
2023-03-02T10:50:02.787Z,8.90
2023-03-02T10:51:05.745Z,6.60
2023-03-02T10:52:08.542Z,9.70
2023-03-02T10:53:18.858Z,10.10
2023-03-02T10:54:21.648Z,7.70
2023-03-02T10:55:25.354Z,8.40
2023-03-02T10:56:30.160Z,11.50
2023-03-02T10:57:42.661Z,7.60
2023-03-02T10:58:45.812Z,7.60
2023-03-02T10:59:51.561Z,10.50
2023-03-02T11:01:06.194Z,9.80
2023-03-02T11:02:14.922Z,9.70
2023-03-02T11:03:22.900Z,8.30
2023-03-02T11:04:26.014Z,10.30
2023-03-02T11:05:40.072Z,9.70
2023-03-02T11:06:43.402Z,9.80
2023-03-02T11:07:56.994Z,10.50
2023-03-02T11:09:06.213Z,13.00
2023-03-02T11:10:24.616Z,11.40
2023-03-02T11:11:27.758Z,13.40
2023-03-02T11:12:32.513Z,12.00
2023-03-02T11:13:37.805Z,15.00
2023-03-02T11:14:40.860Z,12.60
2023-03-02T11:15:46.962Z,12.60
2023-03-02T11:16:52.480Z,11.20
2023-03-02T11:18:07.207Z,13.60
2023-03-02T11:19:35.221Z,8.50
2023-03-02T11:20:42.712Z,8.10
2023-03-02T11:22:26.624Z,10.80
2023-03-02T11:23:54.327Z,9.30
2023-03-02T11:24:59.769Z,11.20
2023-03-02T11:26:10.297Z,11.20
2023-03-02T11:27:20.174Z,12.40
2023-03-02T11:29:11.325Z,8.10
2023-03-02T11:30:19.099Z,8.00
2023-03-02T11:31:29.022Z,10.40
2023-03-02T11:32:37.481Z,10.70
2023-03-02T11:33:56.197Z,8.00
2023-03-02T11:35:08.772Z,7.00
2023-03-02T11:36:17.731Z,7.40
2023-03-02T11:37:34.852Z,11.70
2023-03-02T11:38:48.939Z,9.80
2023-03-02T11:40:29.920Z,8.50
2023-03-02T11:41:34.676Z,8.10
2023-03-02T11:42:41.245Z,8.20
2023-03-02T11:43:44.113Z,7.50
2023-03-02T11:44:48.724Z,10.30
2023-03-02T11:46:14.011Z,10.60
2023-03-02T11:47:23.637Z,13.30
2023-03-02T11:48:29.849Z,11.60
2023-03-02T11:49:45.427Z,9.00
2023-03-02T11:51:22.143Z,11.70
2023-03-02T11:52:28.366Z,10.70
2023-03-02T11:53:42.775Z,11.50
2023-03-02T11:54:52.958Z,10.40
2023-03-02T11:55:56.109Z,11.20
2023-03-02T11:56:59.053Z,11.20
2023-03-02T11:58:04.730Z,14.10
2023-03-02T11:59:16.566Z,12.30
2023-03-02T12:00:35.873Z,12.90
2023-03-02T12:01:40.463Z,14.90
2023-03-02T12:02:43.619Z,15.10
2023-03-02T12:03:47.831Z,10.70
2023-03-02T12:05:05.741Z,10.90
2023-03-02T12:06:14.301Z,10.80
2023-03-02T12:07:23.685Z,11.80
2023-03-02T12:08:40.346Z,12.40
2023-03-02T12:09:43.502Z,11.70
2023-03-02T12:11:06.856Z,14.00
2023-03-02T12:12:25.990Z,11.00
2023-03-02T12:13:39.548Z,11.30
2023-03-02T12:14:43.400Z,13.10
2023-03-02T12:15:48.175Z,12.40
2023-03-02T12:16:52.243Z,13.90
2023-03-02T12:17:55.417Z,13.40
2023-03-02T12:18:58.364Z,12.20
2023-03-02T12:20:07.458Z,12.30
2023-03-02T12:21:13.852Z,14.20
2023-03-02T12:22:27.928Z,12.30
2023-03-02T12:23:33.190Z,15.20
2023-03-02T12:24:42.070Z,14.80
2023-03-02T12:25:51.458Z,13.20
2023-03-02T12:27:05.520Z,13.70
2023-03-02T12:28:26.354Z,13.30
2023-03-02T12:29:45.588Z,12.20
2023-03-02T12:31:07.816Z,11.70
2023-03-02T12:32:19.766Z,13.80
2023-03-02T12:33:22.802Z,11.40
2023-03-02T12:34:34.250Z,13.50
2023-03-02T12:35:38.576Z,14.30
2023-03-02T12:36:44.108Z,13.00
2023-03-02T12:37:49.097Z,12.70
2023-03-02T12:39:25.260Z,12.10
2023-03-02T12:40:49.800Z,12.00
2023-03-02T12:42:20.329Z,12.40
2023-03-02T12:43:44.058Z,11.50
2023-03-02T12:44:52.686Z,11.40
2023-03-02T12:45:58.582Z,12.50
2023-03-02T12:47:03.086Z,12.90
2023-03-02T12:48:24.106Z,13.60
2023-03-02T12:49:30.003Z,11.50
2023-03-02T12:50:37.858Z,10.40
2023-03-02T12:51:48.631Z,11.60
2023-03-02T12:53:07.173Z,9.60
2023-03-02T12:54:18.612Z,11.20
2023-03-02T12:55:21.460Z,10.50
2023-03-02T12:56:25.921Z,9.40
2023-03-02T12:57:29.299Z,11.80
2023-03-02T12:58:34.106Z,9.70
2023-03-02T12:59:37.130Z,13.20
2023-03-02T13:00:40.053Z,16.20
2023-03-02T13:01:43.298Z,11.40
2023-03-02T13:02:51.883Z,9.00
2023-03-02T13:03:55.860Z,10.40
2023-03-02T13:05:00.285Z,11.30
2023-03-02T13:06:05.427Z,9.80
2023-03-02T13:07:17.190Z,12.40
2023-03-02T13:08:25.394Z,11.80
2023-03-02T13:09:29.355Z,12.40
2023-03-02T13:10:40.500Z,14.10
2023-03-02T13:11:44.400Z,11.10
2023-03-02T13:12:47.435Z,14.60
2023-03-02T13:13:50.465Z,13.00
2023-03-02T13:14:56.869Z,12.40
2023-03-02T13:16:02.927Z,13.00
2023-03-02T13:17:05.852Z,14.60
2023-03-02T13:18:12.266Z,14.00
2023-03-02T13:19:18.398Z,12.80
2023-03-02T13:20:22.696Z,13.60
2023-03-02T13:21:34.259Z,15.60
2023-03-02T13:22:37.228Z,15.00
2023-03-02T13:23:50.269Z,13.10
2023-03-02T13:25:02.340Z,16.30
2023-03-02T13:26:05.983Z,13.30
2023-03-02T13:27:17.003Z,12.30
2023-03-02T13:28:27.697Z,13.40
2023-03-02T13:29:31.970Z,13.50
2023-03-02T13:30:37.885Z,14.20
2023-03-02T13:31:40.892Z,14.50
2023-03-02T13:32:43.891Z,16.00
2023-03-02T13:33:50.398Z,12.90
2023-03-02T13:34:58.970Z,16.30
2023-03-02T13:36:02.146Z,14.40
2023-03-02T13:37:40.620Z,19.00
2023-03-02T13:38:49.335Z,16.60
2023-03-02T13:39:57.376Z,13.40
2023-03-02T13:41:02.207Z,14.20
2023-03-02T13:42:05.148Z,13.60
2023-03-02T13:43:26.406Z,15.20
2023-03-02T13:44:34.287Z,18.00
2023-03-02T13:45:37.904Z,15.40
2023-03-02T13:46:42.305Z,18.10
2023-03-02T13:47:45.344Z,14.00
2023-03-02T13:49:14.684Z,17.80
2023-03-02T13:50:22.253Z,15.50
2023-03-02T13:51:27.746Z,12.90
2023-03-02T13:52:31.206Z,12.80
2023-03-02T13:53:38.095Z,13.10
2023-03-02T13:54:43.917Z,12.20
2023-03-02T13:55:47.587Z,11.90
2023-03-02T13:56:51.402Z,14.60
2023-03-02T13:57:55.841Z,14.70
2023-03-02T13:58:58.882Z,14.00
2023-03-02T14:00:01.785Z,13.60
2023-03-02T14:01:06.415Z,13.00
2023-03-02T14:02:23.505Z,14.50
2023-03-02T14:03:29.650Z,23.30
2023-03-02T14:04:32.571Z,16.50
2023-03-02T14:05:35.555Z,17.90
2023-03-02T14:06:38.626Z,19.80
2023-03-02T14:07:41.503Z,19.10
2023-03-02T14:08:46.419Z,21.70
2023-03-02T14:09:49.495Z,23.60
2023-03-02T14:10:55.173Z,21.40
2023-03-02T14:11:58.682Z,24.50
2023-03-02T14:13:14.309Z,23.50
2023-03-02T14:14:21.114Z,21.50
2023-03-02T14:15:24.831Z,22.90
2023-03-02T14:16:28.199Z,24.50
2023-03-02T14:17:31.120Z,23.50
2023-03-02T14:18:41.361Z,24.30